createdAt,value
2018-05-11T00:00:19.131Z,16.70
2018-05-11T00:02:46.713Z,14.37
2018-05-11T00:05:16.559Z,13.70
2018-05-11T00:07:44.129Z,14.07
2018-05-11T00:10:11.732Z,13.57
2018-05-11T00:12:39.316Z,12.73
2018-05-11T00:15:06.910Z,12.73
2018-05-11T00:17:35.256Z,13.00
2018-05-11T00:20:02.816Z,12.33
2018-05-11T00:22:30.398Z,12.27
2018-05-11T00:24:57.983Z,13.03
2018-05-11T00:27:26.346Z,13.37
2018-05-11T00:29:53.922Z,12.87
2018-05-11T00:32:21.504Z,12.13
2018-05-11T00:34:49.052Z,11.03
2018-05-11T00:37:17.405Z,10.50
2018-05-11T00:39:45.005Z,10.97
2018-05-11T00:42:13.357Z,10.73
2018-05-11T00:44:40.929Z,10.20
2018-05-11T00:47:09.192Z,9.70
2018-05-11T00:49:36.751Z,9.23
2018-05-11T00:52:04.353Z,9.10
2018-05-11T00:54:31.934Z,8.80
2018-05-11T00:57:00.275Z,8.67
2018-05-11T00:59:27.884Z,8.50
2018-05-11T01:01:56.256Z,8.80
2018-05-11T01:04:24.593Z,8.63
2018-05-11T01:06:53.874Z,9.53
2018-05-11T01:09:21.435Z,9.47
2018-05-11T01:11:48.980Z,9.20
2018-05-11T01:14:16.605Z,9.37
2018-05-11T01:16:44.192Z,10.23
2018-05-11T01:19:12.607Z,9.67
2018-05-11T01:21:40.214Z,9.10
2018-05-11T01:24:07.783Z,9.80
2018-05-11T01:26:35.414Z,9.43
2018-05-11T01:29:03.001Z,9.17
2018-05-11T01:31:30.586Z,9.27
2018-05-11T01:33:58.198Z,9.30
2018-05-11T01:36:25.766Z,9.30
2018-05-11T01:38:53.370Z,9.50
2018-05-11T01:41:20.960Z,8.37
2018-05-11T01:43:49.314Z,9.40
2018-05-11T01:46:16.905Z,9.03
2018-05-11T01:48:44.498Z,9.60
2018-05-11T01:51:12.055Z,9.47
2018-05-11T01:53:39.647Z,8.83
2018-05-11T01:56:07.245Z,10.30
2018-05-11T01:58:35.574Z,9.80
2018-05-11T02:01:03.945Z,10.03
2018-05-11T02:03:32.300Z,10.80
2018-05-11T02:05:59.867Z,10.30
2018-05-11T02:08:27.451Z,12.50
2018-05-11T02:10:55.025Z,13.93
2018-05-11T02:13:23.392Z,16.20
2018-05-11T02:15:50.962Z,19.37
2018-05-11T02:18:18.538Z,22.47
2018-05-11T02:20:46.906Z,27.60
2018-05-11T02:23:14.489Z,32.70
2018-05-11T02:25:43.004Z,37.63
2018-05-11T02:28:10.568Z,39.87
2018-05-11T02:30:38.139Z,46.53
2018-05-11T02:33:05.728Z,48.03
2018-05-11T02:35:33.296Z,49.43
2018-05-11T02:38:00.886Z,50.17
2018-05-11T02:40:29.237Z,47.87
2018-05-11T02:42:56.797Z,49.73
2018-05-11T02:45:24.413Z,52.03
2018-05-11T02:47:51.985Z,52.97
2018-05-11T02:50:19.585Z,54.03
2018-05-11T02:52:47.167Z,48.47
2018-05-11T02:55:14.750Z,50.10
2018-05-11T02:57:42.335Z,42.77
2018-05-11T03:00:10.697Z,34.00
2018-05-11T03:02:38.267Z,21.60
2018-05-11T03:05:05.845Z,18.17
2018-05-11T03:07:34.212Z,15.77
2018-05-11T03:10:01.795Z,14.87
2018-05-11T03:12:30.129Z,13.27
2018-05-11T03:14:58.468Z,12.13
2018-05-11T03:17:26.053Z,11.60
2018-05-11T03:19:53.638Z,11.70
2018-05-11T03:22:21.226Z,12.03
2018-05-11T03:24:48.806Z,11.83
2018-05-11T03:27:16.373Z,12.23
2018-05-11T03:29:43.954Z,12.40
2018-05-11T03:32:12.379Z,11.80
2018-05-11T03:34:41.398Z,11.70
2018-05-11T03:37:08.971Z,11.90
2018-05-11T03:39:36.533Z,12.53
2018-05-11T03:42:04.129Z,11.77
2018-05-11T03:44:32.457Z,11.50
2018-05-11T03:47:00.040Z,12.63
2018-05-11T03:49:27.623Z,12.20
2018-05-11T03:51:55.970Z,11.97
2018-05-11T03:54:23.540Z,12.17
2018-05-11T03:56:51.116Z,12.67
2018-05-11T03:59:18.701Z,12.33
2018-05-11T04:01:58.273Z,12.70
2018-05-11T04:04:37.632Z,12.50
2018-05-11T04:07:17.176Z,12.63
2018-05-11T04:09:44.770Z,12.60
2018-05-11T04:12:12.382Z,12.70
2018-05-11T04:14:39.945Z,12.00
2018-05-11T04:17:07.537Z,13.00
2018-05-11T04:19:35.118Z,11.83
2018-05-11T04:22:02.717Z,12.53
2018-05-11T04:24:30.303Z,12.50
2018-05-11T04:26:57.873Z,12.03
2018-05-11T04:29:25.465Z,12.50
2018-05-11T04:31:53.044Z,12.20
2018-05-11T04:34:20.618Z,11.50
2018-05-11T04:36:48.233Z,11.83
2018-05-11T04:39:15.835Z,11.63
2018-05-11T04:41:44.124Z,12.10
2018-05-11T04:44:11.690Z,12.27
2018-05-11T04:46:39.291Z,11.53
2018-05-11T04:49:06.865Z,12.73
2018-05-11T04:51:34.422Z,11.83
2018-05-11T04:54:01.985Z,12.83
2018-05-11T04:56:29.579Z,12.40
2018-05-11T04:58:57.141Z,12.53
2018-05-11T05:01:24.717Z,12.10
2018-05-11T05:03:52.295Z,11.63
2018-05-11T05:06:19.890Z,12.40
2018-05-11T05:08:49.080Z,12.40
2018-05-11T05:11:16.713Z,12.37
2018-05-11T05:13:44.271Z,14.07
2018-05-11T05:16:11.889Z,14.73
2018-05-11T05:18:40.566Z,13.93
2018-05-11T05:21:08.148Z,12.23
2018-05-11T05:23:36.484Z,12.70
2018-05-11T05:26:04.066Z,12.80
2018-05-11T05:28:31.666Z,11.77
2018-05-11T05:30:59.309Z,11.43
2018-05-11T05:33:27.749Z,11.90
2018-05-11T05:35:55.345Z,11.00
2018-05-11T05:38:22.973Z,11.43
2018-05-11T05:40:50.525Z,11.63
2018-05-11T05:43:18.131Z,11.20
2018-05-11T05:45:45.763Z,10.97
2018-05-11T05:48:14.095Z,10.30
2018-05-11T05:50:41.677Z,10.27
2018-05-11T05:53:10.033Z,10.10
2018-05-11T05:55:37.619Z,10.07
2018-05-11T05:58:05.246Z,9.40
2018-05-11T06:00:33.572Z,9.80
2018-05-11T06:03:01.942Z,9.27
2018-05-11T06:05:29.532Z,10.07
2018-05-11T06:07:57.414Z,9.73
2018-05-11T06:10:25.009Z,10.07
2018-05-11T06:12:52.606Z,10.90
2018-05-11T06:15:20.206Z,10.17
2018-05-11T06:17:47.788Z,9.93
2018-05-11T06:20:15.378Z,9.47
2018-05-11T06:22:43.572Z,10.67
2018-05-11T06:25:11.155Z,10.40
2018-05-11T06:27:39.502Z,10.80
2018-05-11T06:30:07.138Z,10.50
2018-05-11T06:32:34.711Z,9.03
2018-05-11T06:35:02.287Z,8.90
2018-05-11T06:37:29.855Z,8.93
2018-05-11T06:39:57.453Z,9.50
2018-05-11T06:42:25.023Z,8.90
2018-05-11T06:44:53.459Z,8.07
2018-05-11T06:47:21.037Z,8.13
2018-05-11T06:49:48.633Z,8.33
2018-05-11T06:52:17.016Z,8.33
2018-05-11T06:54:44.595Z,8.10
2018-05-11T06:57:12.949Z,7.93
2018-05-11T06:59:40.627Z,7.93
2018-05-11T07:02:09.133Z,7.27
2018-05-11T07:04:37.474Z,7.67
2018-05-11T07:07:05.092Z,7.20
2018-05-11T07:09:33.451Z,8.13
2018-05-11T07:12:01.022Z,7.50
2018-05-11T07:14:29.386Z,7.97
2018-05-11T07:16:57.212Z,7.43
2018-05-11T07:19:24.853Z,7.77
2018-05-11T07:21:52.396Z,7.20
2018-05-11T07:24:20.002Z,7.73
2018-05-11T07:26:47.567Z,7.10
2018-05-11T07:29:15.142Z,7.13
2018-05-11T07:31:42.757Z,6.90
2018-05-11T07:34:10.388Z,6.53
2018-05-11T07:36:37.966Z,6.30
2018-05-11T07:39:05.650Z,6.83
2018-05-11T07:41:33.237Z,7.20
2018-05-11T07:44:00.914Z,6.57
2018-05-11T07:46:28.547Z,6.30
2018-05-11T07:48:56.158Z,6.63
2018-05-11T07:51:23.770Z,6.37
2018-05-11T07:53:51.383Z,6.67
2018-05-11T07:56:19.552Z,7.13
2018-05-11T07:58:47.924Z,6.20
2018-05-11T08:01:16.267Z,6.10
2018-05-11T08:03:44.443Z,5.00
2018-05-11T08:06:12.044Z,5.33
2018-05-11T08:08:40.425Z,4.70
2018-05-11T08:11:08.039Z,4.60
2018-05-11T08:13:35.642Z,5.40
2018-05-11T08:16:03.229Z,4.90
2018-05-11T08:18:31.588Z,4.93
2018-05-11T08:20:59.211Z,4.90
2018-05-11T08:23:26.849Z,4.60
2018-05-11T08:25:55.181Z,4.97
2018-05-11T08:28:22.752Z,5.60
2018-05-11T08:30:51.137Z,5.17
2018-05-11T08:33:18.755Z,4.60
2018-05-11T08:35:46.340Z,5.30
2018-05-11T08:38:13.933Z,4.93
2018-05-11T08:40:41.520Z,4.53
2018-05-11T08:43:09.107Z,5.10
2018-05-11T08:45:37.447Z,4.90
2018-05-11T08:48:05.048Z,5.50
2018-05-11T08:50:33.424Z,5.40
2018-05-11T08:53:01.814Z,4.90
2018-05-11T08:55:30.198Z,5.17
2018-05-11T08:57:58.554Z,5.50
2018-05-11T09:00:26.158Z,4.30
2018-05-11T09:02:53.809Z,4.97
2018-05-11T09:05:22.166Z,5.10
2018-05-11T09:07:49.736Z,4.83
2018-05-11T09:10:17.329Z,4.60
2018-05-11T09:12:45.677Z,5.27
2018-05-11T09:15:13.288Z,4.73
2018-05-11T09:17:41.815Z,5.00
2018-05-11T09:20:09.427Z,5.20
2018-05-11T09:22:37.814Z,5.40
2018-05-11T09:25:05.381Z,5.27
2018-05-11T09:27:33.744Z,4.70
2018-05-11T09:30:02.184Z,5.43
2018-05-11T09:32:29.776Z,4.83
2018-05-11T09:34:58.188Z,5.40
2018-05-11T09:37:27.660Z,5.17
2018-05-11T09:39:55.285Z,5.37
2018-05-11T09:42:22.884Z,5.47
2018-05-11T09:44:50.476Z,5.70
2018-05-11T09:47:18.844Z,5.67
2018-05-11T09:49:46.458Z,5.60
2018-05-11T09:52:14.031Z,6.00
2018-05-11T09:54:41.637Z,6.00
2018-05-11T09:57:09.213Z,5.90
2018-05-11T09:59:37.534Z,5.80
2018-05-11T10:02:05.155Z,6.40
2018-05-11T10:04:33.596Z,6.60
2018-05-11T10:07:01.189Z,5.97
2018-05-11T10:09:28.788Z,6.67
2018-05-11T10:11:56.413Z,5.83
2018-05-11T10:14:24.000Z,6.00
2018-05-11T10:16:51.579Z,7.13
2018-05-11T10:19:19.153Z,7.67
2018-05-11T10:21:46.739Z,7.90
2018-05-11T10:24:14.299Z,7.87
2018-05-11T10:26:41.886Z,8.07
2018-05-11T10:29:09.553Z,8.80
2018-05-11T10:31:37.081Z,7.97
2018-05-11T10:34:05.548Z,8.30
2018-05-11T10:36:33.918Z,8.13
2018-05-11T10:39:01.502Z,8.07
2018-05-11T10:41:29.112Z,7.87
2018-05-11T10:43:56.697Z,9.27
2018-05-11T10:46:24.299Z,10.33
2018-05-11T10:48:51.915Z,10.10
2018-05-11T10:51:21.712Z,11.17
2018-05-11T10:53:49.865Z,11.27
2018-05-11T10:56:18.213Z,11.07
2018-05-11T10:58:45.795Z,13.20
2018-05-11T11:01:14.323Z,14.50
2018-05-11T11:03:41.915Z,14.47
2018-05-11T11:06:09.493Z,17.77
2018-05-11T11:08:37.133Z,15.90
2018-05-11T11:11:04.706Z,18.77
2018-05-11T11:13:32.389Z,18.97
2018-05-11T11:16:00.667Z,19.33
2018-05-11T11:18:28.247Z,20.10
2018-05-11T11:20:55.810Z,21.93
2018-05-11T11:23:23.420Z,22.77
2018-05-11T11:25:51.083Z,21.83
2018-05-11T11:28:18.593Z,23.60
2018-05-11T11:30:46.192Z,22.60
2018-05-11T11:33:14.542Z,22.37
2018-05-11T11:35:42.767Z,23.27
2018-05-11T11:38:10.364Z,23.43
2018-05-11T11:40:37.935Z,24.20
2018-05-11T11:43:05.535Z,24.33
2018-05-11T11:45:33.125Z,25.30
2018-05-11T11:48:00.710Z,25.53
2018-05-11T11:50:28.320Z,24.93
2018-05-11T11:52:55.924Z,23.70
2018-05-11T11:55:23.974Z,22.50
2018-05-11T11:57:51.570Z,22.00
2018-05-11T12:00:19.150Z,22.60
2018-05-11T12:02:46.742Z,25.47
2018-05-11T12:05:14.362Z,24.60
2018-05-11T12:07:41.982Z,25.10
2018-05-11T12:10:09.597Z,25.03
2018-05-11T12:12:37.180Z,24.57
2018-05-11T12:15:04.803Z,23.23
2018-05-11T12:17:33.130Z,24.93
2018-05-11T12:20:01.476Z,25.13
2018-05-11T12:22:29.090Z,25.00
2018-05-11T12:24:56.684Z,26.13
2018-05-11T12:27:24.264Z,25.77
2018-05-11T12:29:52.643Z,24.83
2018-05-11T12:32:20.977Z,25.70
2018-05-11T12:34:48.568Z,24.57
2018-05-11T12:37:16.154Z,26.97
2018-05-11T12:39:43.722Z,27.20
2018-05-11T12:42:12.057Z,26.83
2018-05-11T12:44:39.636Z,27.00
2018-05-11T12:47:07.220Z,28.03
2018-05-11T12:49:35.386Z,28.73
2018-05-11T12:52:02.972Z,27.47
2018-05-11T12:54:31.324Z,27.07
2018-05-11T12:56:58.942Z,27.00
2018-05-11T12:59:26.552Z,26.73
2018-05-11T13:01:54.132Z,26.53
2018-05-11T13:04:21.720Z,27.10
2018-05-11T13:06:50.104Z,28.03
2018-05-11T13:09:18.429Z,27.70
2018-05-11T13:11:46.063Z,28.60
2018-05-11T13:14:14.433Z,27.57
2018-05-11T13:16:42.017Z,25.80
2018-05-11T13:19:09.609Z,28.17
2018-05-11T13:21:37.174Z,26.60
2018-05-11T13:24:04.775Z,26.90
2018-05-11T13:26:32.453Z,26.10
2018-05-11T13:29:00.798Z,26.40
2018-05-11T13:31:28.375Z,26.10
2018-05-11T13:33:55.976Z,26.27
2018-05-11T13:36:24.401Z,26.37
2018-05-11T13:38:52.672Z,23.07
2018-05-11T13:41:20.254Z,24.27
2018-05-11T13:43:47.862Z,24.50
2018-05-11T13:46:15.464Z,26.03
2018-05-11T13:48:43.066Z,24.63
2018-05-11T13:51:10.651Z,24.97
2018-05-11T13:53:38.999Z,24.40
2018-05-11T13:56:07.123Z,22.63
2018-05-11T13:58:34.665Z,24.23
2018-05-11T14:01:02.317Z,24.73
2018-05-11T14:03:29.916Z,24.97
2018-05-11T14:05:57.525Z,22.90
2018-05-11T14:08:25.116Z,24.00
2018-05-11T14:10:52.724Z,21.60
2018-05-11T14:13:20.310Z,22.37
2018-05-11T14:15:47.895Z,22.70
2018-05-11T14:18:15.490Z,24.43
2018-05-11T14:20:43.829Z,22.10
2018-05-11T14:23:11.431Z,21.60
2018-05-11T14:25:38.997Z,21.40
2018-05-11T14:28:06.595Z,21.43
2018-05-11T14:30:34.184Z,22.27
2018-05-11T14:33:01.769Z,19.93
2018-05-11T14:35:29.353Z,20.47
2018-05-11T14:37:56.937Z,20.13
2018-05-11T14:40:25.299Z,22.20
2018-05-11T14:42:52.960Z,20.37
2018-05-11T14:45:22.264Z,20.10
2018-05-11T14:47:49.983Z,19.10
2018-05-11T14:50:17.572Z,19.37
2018-05-11T14:52:45.180Z,18.67
2018-05-11T14:55:12.765Z,18.23
2018-05-11T14:57:40.356Z,19.27
2018-05-11T15:00:07.998Z,16.90
2018-05-11T15:02:35.623Z,17.33
2018-05-11T15:05:03.228Z,16.63
2018-05-11T15:07:30.834Z,16.30
2018-05-11T15:09:58.414Z,16.03
2018-05-11T15:12:26.051Z,15.87
2018-05-11T15:14:53.663Z,16.27
2018-05-11T15:17:21.281Z,16.00
2018-05-11T15:19:49.645Z,17.50
2018-05-11T15:22:17.257Z,16.90
2018-05-11T15:24:44.827Z,16.13
2018-05-11T15:27:12.419Z,14.57
2018-05-11T15:29:40.784Z,13.47
2018-05-11T15:32:08.345Z,14.23
2018-05-11T15:34:35.920Z,13.00
2018-05-11T15:37:03.496Z,13.33
2018-05-11T15:39:31.864Z,13.87
2018-05-11T15:41:59.475Z,13.03
2018-05-11T15:44:27.076Z,13.17
2018-05-11T15:46:55.553Z,14.73
2018-05-11T15:49:23.152Z,14.07
2018-05-11T15:51:51.487Z,14.83
2018-05-11T15:54:19.082Z,14.60
2018-05-11T15:56:46.690Z,14.40
2018-05-11T15:59:15.687Z,13.87
2018-05-11T16:01:43.266Z,13.87
2018-05-11T16:04:10.852Z,15.00
2018-05-11T16:06:38.455Z,14.10
2018-05-11T16:09:06.072Z,13.90
2018-05-11T16:11:33.655Z,14.43
2018-05-11T16:14:01.237Z,13.60
2018-05-11T16:16:28.828Z,14.70
2018-05-11T16:18:57.202Z,13.93
2018-05-11T16:21:25.547Z,12.93
2018-05-11T16:23:53.157Z,14.93
2018-05-11T16:26:20.740Z,14.63
2018-05-11T16:28:48.835Z,13.90
2018-05-11T16:31:16.508Z,14.63
2018-05-11T16:33:44.077Z,12.93
2018-05-11T16:36:11.636Z,13.33
2018-05-11T16:38:39.224Z,12.40
2018-05-11T16:41:06.828Z,11.77
2018-05-11T16:43:34.407Z,12.63
2018-05-11T16:46:02.012Z,12.10
2018-05-11T16:48:29.603Z,11.13
2018-05-11T16:50:57.211Z,11.70
2018-05-11T16:53:24.794Z,12.17
2018-05-11T16:55:52.383Z,11.80
2018-05-11T16:58:19.970Z,12.23
2018-05-11T17:00:48.336Z,11.63
2018-05-11T17:03:15.914Z,11.50
2018-05-11T17:05:43.506Z,12.40
2018-05-11T17:08:11.200Z,12.07
2018-05-11T17:10:38.757Z,11.40
2018-05-11T17:13:06.339Z,11.17
2018-05-11T17:15:33.914Z,11.00
2018-05-11T17:18:01.501Z,11.37
2018-05-11T17:20:29.092Z,10.67
2018-05-11T17:22:56.752Z,10.93
2018-05-11T17:25:25.011Z,10.60
2018-05-11T17:27:52.594Z,10.20
2018-05-11T17:30:20.185Z,10.03
2018-05-11T17:32:47.850Z,10.57
2018-05-11T17:35:15.428Z,9.50
2018-05-11T17:37:42.993Z,9.97
2018-05-11T17:40:10.565Z,9.40
2018-05-11T17:42:38.179Z,8.77
2018-05-11T17:45:06.524Z,8.87
2018-05-11T17:47:34.166Z,9.37
2018-05-11T17:50:02.471Z,8.30
2018-05-11T17:52:30.042Z,8.97
2018-05-11T17:54:57.622Z,8.63
2018-05-11T17:57:25.195Z,9.13
2018-05-11T17:59:53.601Z,8.50
2018-05-11T18:02:21.178Z,7.77
2018-05-11T18:04:48.763Z,8.10
2018-05-11T18:07:16.362Z,8.17
2018-05-11T18:09:43.962Z,8.67
2018-05-11T18:12:11.663Z,7.87
2018-05-11T18:14:39.175Z,8.37
2018-05-11T18:17:06.739Z,7.73
2018-05-11T18:19:35.073Z,8.23
2018-05-11T18:22:02.755Z,8.43
2018-05-11T18:24:30.320Z,8.90
2018-05-11T18:26:57.887Z,8.60
2018-05-11T18:29:25.516Z,8.83
2018-05-11T18:31:53.107Z,8.97
2018-05-11T18:34:20.698Z,9.20
2018-05-11T18:36:48.304Z,8.90
2018-05-11T18:39:15.880Z,8.73
2018-05-11T18:41:43.456Z,8.37
2018-05-11T18:44:11.018Z,9.23
2018-05-11T18:46:38.591Z,9.07
2018-05-11T18:49:06.140Z,9.30
2018-05-11T18:51:33.701Z,9.40
2018-05-11T18:54:01.601Z,9.73
2018-05-11T18:56:29.656Z,10.40
2018-05-11T18:58:57.242Z,11.47
2018-05-11T19:01:24.824Z,10.33
2018-05-11T19:03:52.393Z,9.63
2018-05-11T19:06:19.969Z,10.40
2018-05-11T19:08:48.366Z,10.07
2018-05-11T19:11:16.707Z,9.50
2018-05-11T19:13:44.269Z,10.60
2018-05-11T19:16:11.855Z,10.70
2018-05-11T19:18:39.447Z,10.03
2018-05-11T19:21:07.037Z,9.27
2018-05-11T19:23:35.492Z,10.23
2018-05-11T19:26:03.897Z,11.27
2018-05-11T19:28:31.493Z,14.37
2018-05-11T19:30:59.101Z,18.10
2018-05-11T19:33:27.534Z,22.20
2018-05-11T19:35:55.114Z,18.27
2018-05-11T19:38:22.702Z,15.93
2018-05-11T19:40:50.306Z,12.40
2018-05-11T19:43:17.914Z,11.50
2018-05-11T19:45:45.511Z,10.53
2018-05-11T19:48:13.867Z,10.40
2018-05-11T19:50:41.436Z,10.17
2018-05-11T19:53:09.020Z,10.83
2018-05-11T19:55:37.982Z,11.17
2018-05-11T19:58:06.362Z,11.43
2018-05-11T20:00:33.942Z,10.20
2018-05-11T20:03:01.519Z,10.00
2018-05-11T20:05:29.091Z,9.40
2018-05-11T20:07:56.702Z,9.80
2018-05-11T20:10:24.276Z,9.37
2018-05-11T20:12:51.888Z,10.07
2018-05-11T20:15:20.226Z,10.43
2018-05-11T20:17:47.833Z,10.13
2018-05-11T20:20:16.195Z,9.60
2018-05-11T20:22:43.789Z,10.37
2018-05-11T20:25:12.127Z,9.40
2018-05-11T20:27:39.708Z,10.13
2018-05-11T20:30:08.078Z,9.97
2018-05-11T20:32:35.755Z,10.17
2018-05-11T20:35:04.095Z,10.00
2018-05-11T20:37:32.384Z,10.37
2018-05-11T20:39:59.996Z,10.63
2018-05-11T20:42:27.596Z,11.50
2018-05-11T20:44:55.183Z,9.83
2018-05-11T20:47:22.857Z,10.60
2018-05-11T20:49:50.472Z,9.67
2018-05-11T20:52:18.061Z,10.50
2018-05-11T20:54:45.656Z,10.03
2018-05-11T20:57:13.244Z,10.10
2018-05-11T20:59:41.309Z,9.30
2018-05-11T21:02:08.892Z,9.93
2018-05-11T21:04:36.456Z,10.20
2018-05-11T21:07:04.084Z,10.00
2018-05-11T21:09:31.943Z,9.90
2018-05-11T21:11:59.579Z,9.60
2018-05-11T21:14:27.237Z,9.40
2018-05-11T21:16:54.769Z,9.27
2018-05-11T21:19:22.384Z,9.63
2018-05-11T21:21:51.239Z,9.53
2018-05-11T21:24:18.863Z,9.77
2018-05-11T21:26:46.479Z,9.70
2018-05-11T21:29:14.062Z,9.13
2018-05-11T21:31:42.428Z,9.80
2018-05-11T21:34:10.000Z,9.60
2018-05-11T21:36:37.574Z,9.53
2018-05-11T21:39:05.954Z,9.37
2018-05-11T21:41:34.337Z,9.23
2018-05-11T21:44:02.768Z,9.17
2018-05-11T21:46:30.390Z,9.23
2018-05-11T21:48:58.762Z,10.00
2018-05-11T21:51:26.376Z,9.83
2018-05-11T21:53:53.973Z,10.03
2018-05-11T21:56:21.573Z,9.33
2018-05-11T21:58:49.166Z,10.40
2018-05-11T22:01:16.751Z,9.33
2018-05-11T22:03:44.317Z,10.03
2018-05-11T22:06:11.914Z,9.93
2018-05-11T22:08:39.527Z,10.70
2018-05-11T22:11:07.889Z,9.53
2018-05-11T22:13:35.544Z,9.47
2018-05-11T22:16:03.097Z,9.87
2018-05-11T22:18:31.450Z,9.70
2018-05-11T22:20:59.049Z,9.57
2018-05-11T22:23:26.617Z,8.60
2018-05-11T22:25:55.030Z,9.03
2018-05-11T22:28:22.613Z,8.77
2018-05-11T22:30:50.193Z,8.90
2018-05-11T22:33:17.804Z,8.23
2018-05-11T22:35:47.766Z,8.80
2018-05-11T22:38:15.385Z,8.23
2018-05-11T22:40:43.744Z,8.00
2018-05-11T22:43:11.310Z,7.63
2018-05-11T22:45:38.890Z,8.20
2018-05-11T22:48:06.471Z,7.13
2018-05-11T22:50:34.794Z,7.53
2018-05-11T22:53:02.383Z,7.70
2018-05-11T22:55:29.955Z,7.53
2018-05-11T22:57:57.579Z,8.13
2018-05-11T23:00:30.891Z,7.33
2018-05-11T23:02:58.459Z,7.30
2018-05-11T23:05:26.054Z,7.73
2018-05-11T23:07:53.620Z,7.30
2018-05-11T23:10:21.172Z,7.37
2018-05-11T23:12:48.863Z,7.80
2018-05-11T23:15:17.181Z,7.43
2018-05-11T23:17:44.758Z,7.33
2018-05-11T23:20:12.346Z,7.40
2018-05-11T23:22:39.918Z,6.80
2018-05-11T23:25:07.504Z,7.03
2018-05-11T23:27:35.861Z,7.63
2018-05-11T23:30:03.484Z,8.00
2018-05-11T23:32:31.066Z,7.60
2018-05-11T23:34:58.680Z,7.90
2018-05-11T23:37:27.067Z,7.53
2018-05-11T23:39:55.395Z,8.57
2018-05-11T23:42:22.984Z,7.93
2018-05-11T23:44:50.557Z,8.27
2018-05-11T23:47:18.141Z,8.33
2018-05-11T23:49:46.543Z,8.20
2018-05-11T23:52:14.861Z,8.50
2018-05-11T23:54:42.429Z,8.40
2018-05-11T23:57:10.006Z,7.73
2018-05-11T23:59:37.572Z,8.77
